sensor_id;sensor_type;location;lat;lon;timestamp;pressure;altitude;pressure_sealevel;temperature;humidity
55068;BME280;40965;52.368;9.712;2024-03-02T00:02:08;99701.66;;;8.51;92.89
55068;BME280;40965;52.368;9.712;2024-03-02T00:04:35;99704.25;;;8.51;93.12
55068;BME280;40965;52.368;9.712;2024-03-02T00:07:02;99708.59;;;8.52;93.09
55068;BME280;40965;52.368;9.712;2024-03-02T00:09:29;99705.16;;;8.48;93.38
55068;BME280;40965;52.368;9.712;2024-03-02T00:12:00;99705.09;;;8.51;93.90
55068;BME280;40965;52.368;9.712;2024-03-02T00:14:30;99698.97;;;8.54;93.54
55068;BME280;40965;52.368;9.712;2024-03-02T00:16:59;99703.31;;;8.55;93.62
55068;BME280;40965;52.368;9.712;2024-03-02T00:19:25;99708.56;;;8.53;93.80
55068;BME280;40965;52.368;9.712;2024-03-02T00:21:52;99706.03;;;8.49;94.51
55068;BME280;40965;52.368;9.712;2024-03-02T00:24:34;99712.94;;;8.53;94.57
55068;BME280;40965;52.368;9.712;2024-03-02T00:27:04;99703.31;;;8.55;94.20
55068;BME280;40965;52.368;9.712;2024-03-02T00:29:36;99710.28;;;8.54;94.54
55068;BME280;40965;52.368;9.712;2024-03-02T00:32:03;99705.97;;;8.52;94.66
55068;BME280;40965;52.368;9.712;2024-03-02T00:34:29;99707.75;;;8.50;94.75
55068;BME280;40965;52.368;9.712;2024-03-02T00:36:57;99712.09;;;8.49;95.28
55068;BME280;40965;52.368;9.712;2024-03-02T00:39:25;99706.84;;;8.51;94.68
55068;BME280;40965;52.368;9.712;2024-03-02T00:41:52;99706.00;;;8.50;95.29
55068;BME280;40965;52.368;9.712;2024-03-02T00:44:25;99711.19;;;8.52;94.88
55068;BME280;40965;52.368;9.712;2024-03-02T00:46:54;99720.75;;;8.51;95.33
55068;BME280;40965;52.368;9.712;2024-03-02T00:49:25;99722.50;;;8.51;95.79
55068;BME280;40965;52.368;9.712;2024-03-02T00:51:54;99717.25;;;8.52;95.60
55068;BME280;40965;52.368;9.712;2024-03-02T00:54:22;99718.16;;;8.50;95.86
55068;BME280;40965;52.368;9.712;2024-03-02T00:56:52;99715.53;;;8.53;95.56
55068;BME280;40965;52.368;9.712;2024-03-02T00:59:21;99711.19;;;8.52;96.04
55068;BME280;40965;52.368;9.712;2024-03-02T01:01:50;99712.94;;;8.51;95.76
55068;BME280;40965;52.368;9.712;2024-03-02T01:04:17;99717.28;;;8.51;96.11
55068;BME280;40965;52.368;9.712;2024-03-02T01:06:44;99711.25;;;8.49;96.65
55068;BME280;40965;52.368;9.712;2024-03-02T01:09:10;99706.91;;;8.44;97.32
55068;BME280;40965;52.368;9.712;2024-03-02T01:11:39;99707.75;;;8.50;96.62
55068;BME280;40965;52.368;9.712;2024-03-02T01:14:06;99708.66;;;8.49;97.08
55068;BME280;40965;52.368;9.712;2024-03-02T01:16:32;99706.03;;;8.49;97.17
55068;BME280;40965;52.368;9.712;2024-03-02T01:19:01;99710.41;;;8.47;97.45
55068;BME280;40965;52.368;9.712;2024-03-02T01:21:27;99716.50;;;8.44;97.66
55068;BME280;40965;52.368;9.712;2024-03-02T01:23:54;99716.50;;;8.46;98.16
55068;BME280;40965;52.368;9.712;2024-03-02T01:26:21;99723.44;;;8.47;98.42
55068;BME280;40965;52.368;9.712;2024-03-02T01:28:50;99716.50;;;8.46;98.26
55068;BME280;40965;52.368;9.712;2024-03-02T01:31:17;99722.56;;;8.44;98.20
55068;BME280;40965;52.368;9.712;2024-03-02T01:33:43;99714.75;;;8.44;98.48
55068;BME280;40965;52.368;9.712;2024-03-02T01:36:11;99708.69;;;8.46;98.53
55068;BME280;40965;52.368;9.712;2024-03-02T01:38:41;99705.16;;;8.48;98.06
55068;BME280;40965;52.368;9.712;2024-03-02T01:41:07;99709.50;;;8.49;97.91
55068;BME280;40965;52.368;9.712;2024-03-02T01:43:36;99710.41;;;8.47;98.07
55068;BME280;40965;52.368;9.712;2024-03-02T01:46:05;99703.47;;;8.44;98.28
55068;BME280;40965;52.368;9.712;2024-03-02T01:48:32;99700.84;;;8.46;98.17
55068;BME280;40965;52.368;9.712;2024-03-02T01:50:59;99699.97;;;8.45;98.02
55068;BME280;40965;52.368;9.712;2024-03-02T01:53:26;99702.56;;;8.45;97.90
55068;BME280;40965;52.368;9.712;2024-03-02T01:55:54;99697.38;;;8.43;98.14
55068;BME280;40965;52.368;9.712;2024-03-02T01:58:21;99695.69;;;8.41;98.16
55068;BME280;40965;52.368;9.712;2024-03-02T02:00:47;99691.31;;;8.41;98.58
55068;BME280;40965;52.368;9.712;2024-03-02T02:03:15;99681.84;;;8.37;98.60
55068;BME280;40965;52.368;9.712;2024-03-02T02:05:46;99687.94;;;8.36;98.96
55068;BME280;40965;52.368;9.712;2024-03-02T02:08:13;99680.16;;;8.33;99.47
55068;BME280;40965;52.368;9.712;2024-03-02T02:10:40;99674.13;;;8.30;100.00
55068;BME280;40965;52.368;9.712;2024-03-02T02:13:07;99677.63;;;8.27;100.00
55068;BME280;40965;52.368;9.712;2024-03-02T02:15:44;99679.38;;;8.28;100.00
55068;BME280;40965;52.368;9.712;2024-03-02T02:18:10;99670.72;;;8.24;100.00
55068;BME280;40965;52.368;9.712;2024-03-02T02:20:37;99669.88;;;8.22;100.00
55068;BME280;40965;52.368;9.712;2024-03-02T02:23:04;99671.63;;;8.22;100.00
55068;BME280;40965;52.368;9.712;2024-03-02T02:25:33;99668.19;;;8.20;100.00
55068;BME280;40965;52.368;9.712;2024-03-02T02:27:59;99673.38;;;8.21;100.00
55068;BME280;40965;52.368;9.712;2024-03-02T02:30:29;99680.31;;;8.24;100.00
55068;BME280;40965;52.368;9.712;2024-03-02T02:32:57;99675.09;;;8.22;100.00
55068;BME280;40965;52.368;9.712;2024-03-02T02:35:24;99666.41;;;8.22;100.00
55068;BME280;40965;52.368;9.712;2024-03-02T02:37:52;99676.00;;;8.21;100.00
55068;BME280;40965;52.368;9.712;2024-03-02T02:40:20;99667.28;;;8.21;100.00
55068;BME280;40965;52.368;9.712;2024-03-02T02:42:47;99665.56;;;8.20;100.00
55068;BME280;40965;52.368;9.712;2024-03-02T02:45:14;99667.28;;;8.21;100.00
55068;BME280;40965;52.368;9.712;2024-03-02T02:47:42;99669.06;;;8.20;100.00
55068;BME280;40965;52.368;9.712;2024-03-02T02:50:11;99668.22;;;8.17;100.00
55068;BME280;40965;52.368;9.712;2024-03-02T02:52:41;99661.28;;;8.16;100.00
55068;BME280;40965;52.368;9.712;2024-03-02T02:55:10;99665.59;;;8.18;100.00
55068;BME280;40965;52.368;9.712;2024-03-02T02:57:41;99656.94;;;8.18;100.00
55068;BME280;40965;52.368;9.712;2024-03-02T03:00:13;99657.84;;;8.15;100.00
55068;BME280;40965;52.368;9.712;2024-03-02T03:02:46;99656.06;;;8.16;100.00
55068;BME280;40965;52.368;9.712;2024-03-02T03:05:14;99662.19;;;8.13;100.00
55068;BME280;40965;52.368;9.712;2024-03-02T03:07:42;99655.28;;;8.10;100.00
55068;BME280;40965;52.368;9.712;2024-03-02T03:10:09;99653.59;;;8.06;100.00
55068;BME280;40965;52.368;9.712;2024-03-02T03:12:36;99659.72;;;8.04;100.00
55068;BME280;40965;52.368;9.712;2024-03-02T03:15:03;99651.13;;;7.99;100.00
55068;BME280;40965;52.368;9.712;2024-03-02T03:17:33;99652.06;;;7.93;100.00
55068;BME280;40965;52.368;9.712;2024-03-02T03:20:01;99647.75;;;7.90;100.00
55068;BME280;40965;52.368;9.712;2024-03-02T03:22:29;99647.84;;;7.84;100.00
55068;BME280;40965;52.368;9.712;2024-03-02T03:24:56;99635.72;;;7.82;100.00
55068;BME280;40965;52.368;9.712;2024-03-02T03:27:22;99641.88;;;7.76;100.00
55068;BME280;40965;52.368;9.712;2024-03-02T03:29:49;99645.41;;;7.73;100.00
55068;BME280;40965;52.368;9.712;2024-03-02T03:32:17;99637.59;;;7.70;100.00
55068;BME280;40965;52.368;9.712;2024-03-02T03:34:44;99634.19;;;7.68;100.00
55068;BME280;40965;52.368;9.712;2024-03-02T03:37:10;99644.59;;;7.68;100.00
55068;BME280;40965;52.368;9.712;2024-03-02T03:39:38;99647.22;;;7.65;100.00
55068;BME280;40965;52.368;9.712;2024-03-02T03:42:07;99645.53;;;7.61;100.00
55068;BME280;40965;52.368;9.712;2024-03-02T03:44:36;99642.13;;;7.59;100.00
55068;BME280;40965;52.368;9.712;2024-03-02T03:47:04;99646.50;;;7.55;100.00
55068;BME280;40965;52.368;9.712;2024-03-02T03:49:31;99641.34;;;7.52;100.00
55068;BME280;40965;52.368;9.712;2024-03-02T03:51:58;99633.53;;;7.51;100.00
55068;BME280;40965;52.368;9.712;2024-03-02T03:54:24;99642.25;;;7.50;100.00
55068;BME280;40965;52.368;9.712;2024-03-02T03:56:51;99645.72;;;7.49;100.00
55068;BME280;40965;52.368;9.712;2024-03-02T03:59:17;99640.53;;;7.47;100.00
55068;BME280;40965;52.368;9.712;2024-03-02T04:01:44;99651.78;;;7.48;100.00
55068;BME280;40965;52.368;9.712;2024-03-02T04:04:10;99643.13;;;7.47;100.00
55068;BME280;40965;52.368;9.712;2024-03-02T04:06:37;99644.91;;;7.43;100.00
55068;BME280;40965;52.368;9.712;2024-03-02T04:09:11;99631.91;;;7.42;100.00
55068;BME280;40965;52.368;9.712;2024-03-02T04:11:39;99643.16;;;7.44;100.00
55068;BME280;40965;52.368;9.712;2024-03-02T04:14:06;99641.41;;;7.46;100.00
55068;BME280;40965;52.368;9.712;2024-03-02T04:16:34;99639.66;;;7.47;100.00
55068;BME280;40965;52.368;9.712;2024-03-02T04:19:13;99637.06;;;7.45;100.00
55068;BME280;40965;52.368;9.712;2024-03-02T04:21:40;99634.44;;;7.47;100.00
55068;BME280;40965;52.368;9.712;2024-03-02T04:24:15;99627.50;;;7.47;100.00
55068;BME280;40965;52.368;9.712;2024-03-02T04:26:44;99625.75;;;7.48;100.00
55068;BME280;40965;52.368;9.712;2024-03-02T04:29:14;99637.03;;;7.50;100.00
55068;BME280;40965;52.368;9.712;2024-03-02T04:31:47;99635.31;;;7.47;100.00
55068;BME280;40965;52.368;9.712;2024-03-02T04:34:14;99634.50;;;7.43;100.00
55068;BME280;40965;52.368;9.712;2024-03-02T04:36:41;99639.69;;;7.45;100.00
55068;BME280;40965;52.368;9.712;2024-03-02T04:39:07;99642.34;;;7.42;100.00
55068;BME280;40965;52.368;9.712;2024-03-02T04:41:36;99643.19;;;7.42;100.00
55068;BME280;40965;52.368;9.712;2024-03-02T04:44:02;99643.22;;;7.39;100.00
55068;BME280;40965;52.368;9.712;2024-03-02T04:46:29;99650.19;;;7.37;100.00
55068;BME280;40965;52.368;9.712;2024-03-02T04:48:55;99653.69;;;7.35;100.00
55068;BME280;40965;52.368;9.712;2024-03-02T04:51:22;99644.16;;;7.32;100.00
55068;BME280;40965;52.368;9.712;2024-03-02T04:53:49;99638.13;;;7.30;100.00
55068;BME280;40965;52.368;9.712;2024-03-02T04:56:15;99648.56;;;7.27;100.00
55068;BME280;40965;52.368;9.712;2024-03-02T04:59:10;99647.72;;;7.23;100.00
55068;BME280;40965;52.368;9.712;2024-03-02T05:01:36;99649.53;;;7.20;100.00
55068;BME280;40965;52.368;9.712;2024-03-02T05:04:03;99653.94;;;7.15;100.00
55068;BME280;40965;52.368;9.712;2024-03-02T05:06:30;99647.88;;;7.12;100.00
55068;BME280;40965;52.368;9.712;2024-03-02T05:08:57;99642.69;;;7.11;100.00
55068;BME280;40965;52.368;9.712;2024-03-02T05:11:24;99645.31;;;7.08;100.00
55068;BME280;40965;52.368;9.712;2024-03-02T05:14:24;99641.88;;;7.04;100.00
55068;BME280;40965;52.368;9.712;2024-03-02T05:16:50;99637.59;;;7.02;100.00
55068;BME280;40965;52.368;9.712;2024-03-02T05:19:17;99643.59;;;7.04;100.00
55068;BME280;40965;52.368;9.712;2024-03-02T05:21:46;99634.94;;;7.03;100.00
55068;BME280;40965;52.368;9.712;2024-03-02T05:24:14;99631.50;;;7.01;100.00
55068;BME280;40965;52.368;9.712;2024-03-02T05:26:46;99642.78;;;6.99;100.00
55068;BME280;40965;52.368;9.712;2024-03-02T05:29:13;99648.91;;;6.98;100.00
55068;BME280;40965;52.368;9.712;2024-03-02T05:31:40;99645.44;;;6.95;100.00
55068;BME280;40965;52.368;9.712;2024-03-02T05:34:06;99635.06;;;6.92;100.00
55068;BME280;40965;52.368;9.712;2024-03-02T05:36:33;99637.66;;;6.91;100.00
55068;BME280;40965;52.368;9.712;2024-03-02T05:39:00;99646.38;;;6.90;100.00
55068;BME280;40965;52.368;9.712;2024-03-02T05:41:30;99654.19;;;6.87;100.00
55068;BME280;40965;52.368;9.712;2024-03-02T05:43:56;99660.31;;;6.86;100.00
55068;BME280;40965;52.368;9.712;2024-03-02T05:46:23;99662.91;;;6.83;100.00
55068;BME280;40965;52.368;9.712;2024-03-02T05:48:50;99659.47;;;6.79;100.00
55068;BME280;40965;52.368;9.712;2024-03-02T05:51:17;99669.88;;;6.79;100.00
55068;BME280;40965;52.368;9.712;2024-03-02T05:53:44;99663.84;;;6.77;100.00
55068;BME280;40965;52.368;9.712;2024-03-02T05:56:14;99666.47;;;6.75;100.00
55068;BME280;40965;52.368;9.712;2024-03-02T05:58:40;99660.41;;;6.72;100.00
55068;BME280;40965;52.368;9.712;2024-03-02T06:01:22;99665.63;;;6.69;100.00
55068;BME280;40965;52.368;9.712;2024-03-02T06:03:55;99662.25;;;6.64;100.00
55068;BME280;40965;52.368;9.712;2024-03-02T06:06:25;99665.72;;;6.61;100.00
55068;BME280;40965;52.368;9.712;2024-03-02T06:08:52;99667.47;;;6.59;100.00
55068;BME280;40965;52.368;9.712;2024-03-02T06:11:19;99657.09;;;6.56;100.00
55068;BME280;40965;52.368;9.712;2024-03-02T06:13:48;99674.44;;;6.54;100.00
55068;BME280;40965;52.368;9.712;2024-03-02T06:16:15;99671.84;;;6.52;100.00
55068;BME280;40965;52.368;9.712;2024-03-02T06:18:42;99679.69;;;6.51;100.00
55068;BME280;40965;52.368;9.712;2024-03-02T06:21:12;99679.63;;;6.54;100.00
55068;BME280;40965;52.368;9.712;2024-03-02T06:23:46;99689.19;;;6.55;100.00
55068;BME280;40965;52.368;9.712;2024-03-02T06:26:13;99693.50;;;6.57;100.00
55068;BME280;40965;52.368;9.712;2024-03-02T06:28:40;99690.84;;;6.60;100.00
55068;BME280;40965;52.368;9.712;2024-03-02T06:31:06;99685.63;;;6.65;100.00
55068;BME280;40965;52.368;9.712;2024-03-02T06:33:33;99689.94;;;6.68;100.00
55068;BME280;40965;52.368;9.712;2024-03-02T06:35:59;99695.06;;;6.74;100.00
55068;BME280;40965;52.368;9.712;2024-03-02T06:38:26;99693.28;;;6.79;100.00
55068;BME280;40965;52.368;9.712;2024-03-02T06:40:53;99693.22;;;6.87;100.00
55068;BME280;40965;52.368;9.712;2024-03-02T06:43:20;99689.69;;;6.95;100.00
55068;BME280;40965;52.368;9.712;2024-03-02T06:45:49;99693.94;;;7.04;100.00
55068;BME280;40965;52.368;9.712;2024-03-02T06:48:19;99696.47;;;7.12;100.00
55068;BME280;40965;52.368;9.712;2024-03-02T06:50:50;99696.38;;;7.20;100.00
55068;BME280;40965;52.368;9.712;2024-03-02T06:53:17;99700.63;;;7.30;100.00
55068;BME280;40965;52.368;9.712;2024-03-02T06:55:47;99700.50;;;7.38;100.00
55068;BME280;40965;52.368;9.712;2024-03-02T06:58:16;99698.72;;;7.43;100.00
55068;BME280;40965;52.368;9.712;2024-03-02T07:00:43;99698.59;;;7.55;100.00
55068;BME280;40965;52.368;9.712;2024-03-02T07:03:10;99695.00;;;7.62;100.00
55068;BME280;40965;52.368;9.712;2024-03-02T07:05:37;99699.22;;;7.73;100.00
55068;BME280;40965;52.368;9.712;2024-03-02T07:08:04;99698.19;;;7.85;100.00
55068;BME280;40965;52.368;9.712;2024-03-02T07:10:31;99699.72;;;8.01;100.00
55068;BME280;40965;52.368;9.712;2024-03-02T07:12:58;99703.75;;;8.82;100.00
55068;BME280;40965;52.368;9.712;2024-03-02T07:15:24;99706.50;;;9.68;99.70
55068;BME280;40965;52.368;9.712;2024-03-02T07:18:09;99713.47;;;9.69;94.87
55068;BME280;40965;52.368;9.712;2024-03-02T07:20:36;99708.53;;;10.36;91.57
55068;BME280;40965;52.368;9.712;2024-03-02T07:23:04;99715.66;;;11.35;85.18
55068;BME280;40965;52.368;9.712;2024-03-02T07:25:37;99719.19;;;11.65;79.91
55068;BME280;40965;52.368;9.712;2024-03-02T07:28:06;99715.53;;;12.02;78.32
55068;BME280;40965;52.368;9.712;2024-03-02T07:30:33;99717.44;;;11.97;78.48
55068;BME280;40965;52.368;9.712;2024-03-02T07:33:02;99715.72;;;11.95;79.12
55068;BME280;40965;52.368;9.712;2024-03-02T07:35:31;99724.19;;;12.06;78.37
55068;BME280;40965;52.368;9.712;2024-03-02T07:37:59;99726.94;;;12.01;75.71
55068;BME280;40965;52.368;9.712;2024-03-02T07:40:25;99731.81;;;12.14;76.74
55068;BME280;40965;52.368;9.712;2024-03-02T07:42:52;99733.44;;;12.46;74.03
55068;BME280;40965;52.368;9.712;2024-03-02T07:45:19;99731.31;;;13.11;70.97
55068;BME280;40965;52.368;9.712;2024-03-02T07:47:46;99737.78;;;14.24;67.08
55068;BME280;40965;52.368;9.712;2024-03-02T07:50:15;99744.00;;;13.76;66.79
55068;BME280;40965;52.368;9.712;2024-03-02T07:52:41;99735.38;;;13.47;67.39
55068;BME280;40965;52.368;9.712;2024-03-02T07:55:08;99740.94;;;13.63;67.76
55068;BME280;40965;52.368;9.712;2024-03-02T07:57:34;99731.91;;;14.17;65.70
55068;BME280;40965;52.368;9.712;2024-03-02T08:00:01;99733.88;;;12.61;70.28
55068;BME280;40965;52.368;9.712;2024-03-02T08:02:28;99739.88;;;11.76;74.59
55068;BME280;40965;52.368;9.712;2024-03-02T08:04:54;99736.84;;;10.92;79.22
55068;BME280;40965;52.368;9.712;2024-03-02T08:07:21;99735.44;;;10.43;82.56
55068;BME280;40965;52.368;9.712;2024-03-02T08:09:50;99741.84;;;10.26;84.40
55068;BME280;40965;52.368;9.712;2024-03-02T08:12:17;99734.75;;;9.92;88.02
55068;BME280;40965;52.368;9.712;2024-03-02T08:14:45;99738.47;;;9.81;88.87
55068;BME280;40965;52.368;9.712;2024-03-02T08:17:11;99745.97;;;9.98;88.53
55068;BME280;40965;52.368;9.712;2024-03-02T08:19:40;99740.91;;;9.90;88.42
55068;BME280;40965;52.368;9.712;2024-03-02T08:22:07;99737.53;;;9.85;88.46
55068;BME280;40965;52.368;9.712;2024-03-02T08:24:34;99739.84;;;9.99;87.89
55068;BME280;40965;52.368;9.712;2024-03-02T08:27:00;99745.69;;;10.10;87.99
55068;BME280;40965;52.368;9.712;2024-03-02T08:29:27;99740.34;;;10.16;86.61
55068;BME280;40965;52.368;9.712;2024-03-02T08:31:54;99743.00;;;10.15;86.95
55068;BME280;40965;52.368;9.712;2024-03-02T08:34:21;99746.28;;;10.23;86.58
55068;BME280;40965;52.368;9.712;2024-03-02T08:36:47;99748.09;;;10.19;86.71
55068;BME280;40965;52.368;9.712;2024-03-02T08:39:15;99748.06;;;10.22;86.35
55068;BME280;40965;52.368;9.712;2024-03-02T08:41:45;99756.50;;;10.34;86.54
55068;BME280;40965;52.368;9.712;2024-03-02T08:44:13;99752.63;;;10.53;85.14
55068;BME280;40965;52.368;9.712;2024-03-02T08:46:40;99750.72;;;10.60;84.07
55068;BME280;40965;52.368;9.712;2024-03-02T08:49:07;99748.13;;;10.58;84.69
55068;BME280;40965;52.368;9.712;2024-03-02T08:51:34;99758.41;;;10.68;84.11
55068;BME280;40965;52.368;9.712;2024-03-02T08:54:01;99762.31;;;10.50;83.79
55068;BME280;40965;52.368;9.712;2024-03-02T08:56:30;99753.88;;;10.74;83.26
55068;BME280;40965;52.368;9.712;2024-03-02T08:58:57;99764.19;;;10.81;83.52
55068;BME280;40965;52.368;9.712;2024-03-02T09:01:26;99754.31;;;10.92;82.09
55068;BME280;40965;52.368;9.712;2024-03-02T09:03:53;99758.38;;;11.04;80.38
55068;BME280;40965;52.368;9.712;2024-03-02T09:06:20;99759.41;;;10.98;80.35
55068;BME280;40965;52.368;9.712;2024-03-02T09:08:46;99762.47;;;10.80;80.31
55068;BME280;40965;52.368;9.712;2024-03-02T09:11:13;99764.13;;;10.84;80.61
55068;BME280;40965;52.368;9.712;2024-03-02T09:13:40;99766.19;;;11.07;80.06
55068;BME280;40965;52.368;9.712;2024-03-02T09:16:07;99754.81;;;11.06;79.21
55068;BME280;40965;52.368;9.712;2024-03-02T09:18:42;99761.03;;;11.02;78.96
55068;BME280;40965;52.368;9.712;2024-03-02T09:21:09;99768.66;;;11.12;79.04
55068;BME280;40965;52.368;9.712;2024-03-02T09:23:35;99765.25;;;11.09;78.03
55068;BME280;40965;52.368;9.712;2024-03-02T09:26:01;99762.44;;;11.16;78.53
55068;BME280;40965;52.368;9.712;2024-03-02T09:28:28;99762.56;;;11.11;77.69
55068;BME280;40965;52.368;9.712;2024-03-02T09:30:58;99760.56;;;11.22;77.26
55068;BME280;40965;52.368;9.712;2024-03-02T09:33:24;99759.44;;;11.31;76.76
55068;BME280;40965;52.368;9.712;2024-03-02T09:35:51;99770.06;;;11.25;76.14
55068;BME280;40965;52.368;9.712;2024-03-02T09:38:21;99767.03;;;11.42;76.39
55068;BME280;40965;52.368;9.712;2024-03-02T09:40:47;99764.66;;;11.31;76.86
55068;BME280;40965;52.368;9.712;2024-03-02T09:43:14;99769.94;;;11.30;76.71
55068;BME280;40965;52.368;9.712;2024-03-02T09:45:41;99763.06;;;11.25;76.20
55068;BME280;40965;52.368;9.712;2024-03-02T09:48:08;99777.91;;;11.27;76.63
55068;BME280;40965;52.368;9.712;2024-03-02T09:50:35;99771.44;;;11.40;76.47
55068;BME280;40965;52.368;9.712;2024-03-02T09:53:01;99775.63;;;11.46;76.43
55068;BME280;40965;52.368;9.712;2024-03-02T09:55:28;99775.31;;;11.58;75.68
55068;BME280;40965;52.368;9.712;2024-03-02T09:57:55;99784.38;;;11.46;75.82
55068;BME280;40965;52.368;9.712;2024-03-02T10:00:22;99780.88;;;11.46;75.96
55068;BME280;40965;52.368;9.712;2024-03-02T10:02:52;99782.41;;;11.21;76.16
55068;BME280;40965;52.368;9.712;2024-03-02T10:05:29;99782.47;;;11.18;76.46
55068;BME280;40965;52.368;9.712;2024-03-02T10:08:02;99780.94;;;11.44;75.55
55068;BME280;40965;52.368;9.712;2024-03-02T10:10:38;99788.28;;;11.30;75.56
55068;BME280;40965;52.368;9.712;2024-03-02T10:13:13;99785.47;;;11.37;75.39
55068;BME280;40965;52.368;9.712;2024-03-02T10:15:43;99789.63;;;11.46;76.08
55068;BME280;40965;52.368;9.712;2024-03-02T10:18:13;99777.69;;;11.67;75.16
55068;BME280;40965;52.368;9.712;2024-03-02T10:20:42;99789.00;;;11.69;74.48
55068;BME280;40965;52.368;9.712;2024-03-02T10:23:16;99793.84;;;11.83;74.07
55068;BME280;40965;52.368;9.712;2024-03-02T10:25:46;99790.16;;;11.90;73.83
55068;BME280;40965;52.368;9.712;2024-03-02T10:28:13;99790.97;;;11.92;73.60
55068;BME280;40965;52.368;9.712;2024-03-02T10:30:41;99798.47;;;12.06;72.80
55068;BME280;40965;52.368;9.712;2024-03-02T10:33:07;99795.63;;;12.14;72.20
55068;BME280;40965;52.368;9.712;2024-03-02T10:35:34;99793.00;;;12.14;72.12
55068;BME280;40965;52.368;9.712;2024-03-02T10:38:04;99800.84;;;12.16;73.08
55068;BME280;40965;52.368;9.712;2024-03-02T10:40:32;99794.13;;;12.35;72.38
55068;BME280;40965;52.368;9.712;2024-03-02T10:43:01;99793.59;;;12.24;71.91
55068;BME280;40965;52.368;9.712;2024-03-02T10:45:28;99791.50;;;12.35;71.26
55068;BME280;40965;52.368;9.712;2024-03-02T10:47:56;99797.00;;;12.56;71.09
55068;BME280;40965;52.368;9.712;2024-03-02T10:50:27;99798.19;;;12.46;70.39
55068;BME280;40965;52.368;9.712;2024-03-02T10:53:02;99799.78;;;12.51;69.92
55068;BME280;40965;52.368;9.712;2024-03-02T10:55:31;99793.56;;;12.54;70.66
55068;BME280;40965;52.368;9.712;2024-03-02T10:58:00;99783.50;;;12.68;70.33
55068;BME280;40965;52.368;9.712;2024-03-02T11:00:33;99793.47;;;12.85;69.42
55068;BME280;40965;52.368;9.712;2024-03-02T11:03:05;99799.53;;;12.59;69.00
55068;BME280;40965;52.368;9.712;2024-03-02T11:05:36;99793.31;;;12.90;68.94
55068;BME280;40965;52.368;9.712;2024-03-02T11:08:12;99790.81;;;13.40;66.96
55068;BME280;40965;52.368;9.712;2024-03-02T11:10:45;99788.50;;;13.56;65.62
55068;BME280;40965;52.368;9.712;2024-03-02T11:13:17;99785.41;;;13.94;65.23
55068;BME280;40965;52.368;9.712;2024-03-02T11:15:54;99785.09;;;14.26;63.67
55068;BME280;40965;52.368;9.712;2024-03-02T11:18:24;99790.38;;;13.78;63.64
55068;BME280;40965;52.368;9.712;2024-03-02T11:20:51;99789.06;;;13.65;64.24
55068;BME280;40965;52.368;9.712;2024-03-02T11:23:31;99786.72;;;13.57;64.90
55068;BME280;40965;52.368;9.712;2024-03-02T11:26:22;99790.06;;;13.35;64.97
55068;BME280;40965;52.368;9.712;2024-03-02T11:28:50;99785.06;;;13.28;65.44
55068;BME280;40965;52.368;9.712;2024-03-02T11:31:16;99788.97;;;12.89;66.04
55068;BME280;40965;52.368;9.712;2024-03-02T11:33:44;99785.06;;;13.01;65.90
55068;BME280;40965;52.368;9.712;2024-03-02T11:36:10;99775.78;;;12.90;66.19
55068;BME280;40965;52.368;9.712;2024-03-02T11:38:37;99781.97;;;12.89;65.74
55068;BME280;40965;52.368;9.712;2024-03-02T11:41:07;99776.94;;;13.08;65.38
55068;BME280;40965;52.368;9.712;2024-03-02T11:43:38;99784.56;;;13.16;65.16
55068;BME280;40965;52.368;9.712;2024-03-02T11:46:08;99776.69;;;13.16;65.31
55068;BME280;40965;52.368;9.712;2024-03-02T11:48:39;99791.81;;;13.10;65.06
55068;BME280;40965;52.368;9.712;2024-03-02T11:51:09;99778.59;;;13.11;64.26
55068;BME280;40965;52.368;9.712;2024-03-02T11:53:40;99787.94;;;12.93;64.46
55068;BME280;40965;52.368;9.712;2024-03-02T11:56:13;99781.63;;;13.26;63.94
55068;BME280;40965;52.368;9.712;2024-03-02T11:58:41;99774.00;;;13.45;63.03
55068;BME280;40965;52.368;9.712;2024-03-02T12:01:10;99766.06;;;14.19;60.80
55068;BME280;40965;52.368;9.712;2024-03-02T12:03:37;99764.59;;;14.80;59.42
55068;BME280;40965;52.368;9.712;2024-03-02T12:06:06;99769.59;;;14.86;58.92
55068;BME280;40965;52.368;9.712;2024-03-02T12:08:33;99759.25;;;15.24;57.56
55068;BME280;40965;52.368;9.712;2024-03-02T12:11:01;99757.59;;;15.21;58.11
55068;BME280;40965;52.368;9.712;2024-03-02T12:13:28;99757.94;;;15.34;57.63
55068;BME280;40965;52.368;9.712;2024-03-02T12:15:55;99757.59;;;15.01;57.25
55068;BME280;40965;52.368;9.712;2024-03-02T12:18:26;99750.59;;;14.55;58.25
55068;BME280;40965;52.368;9.712;2024-03-02T12:20:53;99749.56;;;14.60;59.07
55068;BME280;40965;52.368;9.712;2024-03-02T12:23:22;99754.69;;;15.07;57.74
55068;BME280;40965;52.368;9.712;2024-03-02T12:25:49;99743.53;;;15.62;55.62
55068;BME280;40965;52.368;9.712;2024-03-02T12:28:17;99741.22;;;15.75;55.27
55068;BME280;40965;52.368;9.712;2024-03-02T12:30:45;99745.09;;;15.87;54.76
55068;BME280;40965;52.368;9.712;2024-03-02T12:33:13;99742.72;;;15.81;54.22
55068;BME280;40965;52.368;9.712;2024-03-02T12:35:48;99742.81;;;16.36;52.68
55068;BME280;40965;52.368;9.712;2024-03-02T12:38:18;99747.09;;;16.20;53.18
55068;BME280;40965;52.368;9.712;2024-03-02T12:40:51;99738.53;;;17.07;51.37
55068;BME280;40965;52.368;9.712;2024-03-02T12:43:18;99738.34;;;17.10;51.97
55068;BME280;40965;52.368;9.712;2024-03-02T12:45:45;99723.59;;;17.91;48.34
55068;BME280;40965;52.368;9.712;2024-03-02T12:48:13;99727.56;;;18.15;47.01
55068;BME280;40965;52.368;9.712;2024-03-02T12:50:40;99732.56;;;19.14;45.47
55068;BME280;40965;52.368;9.712;2024-03-02T12:53:06;99730.06;;;19.42;43.54
55068;BME280;40965;52.368;9.712;2024-03-02T12:55:33;99723.06;;;19.84;42.70
55068;BME280;40965;52.368;9.712;2024-03-02T12:58:00;99730.81;;;20.85;41.16
55068;BME280;40965;52.368;9.712;2024-03-02T13:00:29;99727.34;;;20.70;40.36
55068;BME280;40965;52.368;9.712;2024-03-02T13:03:00;99736.34;;;20.67;40.07
55068;BME280;40965;52.368;9.712;2024-03-02T13:05:32;99725.13;;;21.30;38.96
55068;BME280;40965;52.368;9.712;2024-03-02T13:07:59;99723.59;;;22.16;37.31
55068;BME280;40965;52.368;9.712;2024-03-02T13:10:25;99722.91;;;21.49;37.95